Time;durP1;ratioP1;P1;durP2;ratioP2;P2;SDS_P1;SDS_P2;PMS_P1;PMS_P2;Temp;Humidity;BMP_temperature;BMP_pressure;BME280_temperature;BME280_humidity;BME280_pressure;Samples;Min_cycle;Max_cycle;Signal;HPM_P1;HPM_P2
2023/01/15 00:01:01;;;;;;;2.83;0.95;;;8.90;92.00;;;;;;5028124;28;20033;-67
2023/01/15 00:03:27;;;;;;;2.85;1.10;;;8.90;92.00;;;;;;5027564;28;20029;-67
2023/01/15 00:06:02;;;;;;;0.85;0.73;;;8.90;92.00;;;;;;5030066;28;20472;-67
2023/01/15 00:08:27;;;;;;;3.05;0.93;;;8.90;92.10;;;;;;5028999;28;20091;-67
2023/01/15 00:10:55;;;;;;;3.25;0.98;;;8.90;91.80;;;;;;5030501;28;20037;-66
2023/01/15 00:13:20;;;;;;;2.13;1.10;;;8.90;91.80;;;;;;5030522;28;20032;-69
2023/01/15 00:15:46;;;;;;;5.40;1.02;;;8.90;91.70;;;;;;5029656;28;20767;-69
2023/01/15 00:18:12;;;;;;;1.27;1.00;;;9.00;91.90;;;;;;5028231;28;20036;-67
2023/01/15 00:20:37;;;;;;;1.88;0.80;;;8.90;91.80;;;;;;5028975;28;20029;-67
2023/01/15 00:23:03;;;;;;;3.63;1.00;;;8.90;91.70;;;;;;5029896;28;20071;-66
2023/01/15 00:28:13;;;;;;;3.50;0.93;;;8.90;91.60;;;;;;5029170;28;20033;-66
2023/01/15 00:30:41;;;;;;;2.60;0.90;;;8.90;91.60;;;;;;5031628;28;20041;-66
2023/01/15 00:33:07;;;;;;;3.35;0.95;;;8.90;91.60;;;;;;5029550;28;20022;-66
2023/01/15 00:35:33;;;;;;;2.10;0.90;;;8.90;91.50;;;;;;5022279;28;20025;-66
2023/01/15 00:37:59;;;;;;;2.50;0.90;;;8.90;91.50;;;;;;5030130;28;20397;-68
2023/01/15 00:40:24;;;;;;;7.85;1.30;;;8.90;91.50;;;;;;5029180;28;20021;-67
2023/01/15 00:42:50;;;;;;;1.58;0.90;;;8.80;91.50;;;;;;5027120;28;20034;-67
2023/01/15 00:45:16;;;;;;;1.73;0.90;;;8.80;91.40;;;;;;5028122;28;20025;-67
2023/01/15 00:47:43;;;;;;;1.65;0.70;;;8.80;91.50;;;;;;5024385;28;20423;-65
2023/01/15 00:50:14;;;;;;;2.28;0.80;;;8.80;91.50;;;;;;5027349;28;20144;-67
2023/01/15 00:52:40;;;;;;;4.22;1.00;;;8.80;91.40;;;;;;5026085;28;20497;-66
2023/01/15 00:55:06;;;;;;;1.85;0.88;;;8.70;91.20;;;;;;5028004;28;20025;-65
2023/01/15 00:57:32;;;;;;;1.15;0.95;;;8.70;91.30;;;;;;5028943;28;20039;-67
2023/01/15 00:59:58;;;;;;;1.80;0.73;;;8.70;91.30;;;;;;5023915;28;20382;-67
2023/01/15 01:02:23;;;;;;;4.50;0.93;;;8.70;91.30;;;;;;5028885;28;20025;-67
2023/01/15 01:04:49;;;;;;;2.97;1.75;;;8.80;91.40;;;;;;5029195;28;20026;-67
2023/01/15 01:07:15;;;;;;;2.35;1.25;;;8.80;91.20;;;;;;5029619;28;20033;-66
2023/01/15 01:09:41;;;;;;;2.05;0.80;;;8.70;91.00;;;;;;5027294;28;20029;-67
2023/01/15 01:12:07;;;;;;;2.00;0.93;;;8.70;90.90;;;;;;5025553;28;20037;-67
2023/01/15 01:14:33;;;;;;;2.08;0.75;;;8.70;90.90;;;;;;5029347;28;20040;-67
2023/01/15 01:16:58;;;;;;;2.40;0.80;;;8.70;90.90;;;;;;5029943;28;20033;-66
2023/01/15 01:19:25;;;;;;;5.70;1.27;;;8.60;90.80;;;;;;5027523;28;20022;-67
2023/01/15 01:21:51;;;;;;;5.35;0.98;;;8.70;90.80;;;;;;5023082;28;20057;-67
2023/01/15 01:24:20;;;;;;;5.63;1.10;;;8.60;90.60;;;;;;5038373;28;20051;-66
2023/01/15 01:26:47;;;;;;;3.03;1.23;;;8.60;90.50;;;;;;5028345;28;20033;-68
2023/01/15 01:29:14;;;;;;;4.32;1.33;;;8.60;90.40;;;;;;5023262;28;20160;-67
2023/01/15 01:31:39;;;;;;;2.90;0.80;;;8.60;90.20;;;;;;5028524;28;20109;-66
2023/01/15 01:34:05;;;;;;;8.63;1.20;;;8.60;90.40;;;;;;5028722;28;20103;-67
2023/01/15 01:36:33;;;;;;;5.15;1.10;;;8.60;90.30;;;;;;5024780;28;20018;-66
2023/01/15 01:38:59;;;;;;;2.70;1.23;;;8.50;90.10;;;;;;5028906;28;20069;-66
2023/01/15 01:41:25;;;;;;;3.92;0.88;;;8.50;90.00;;;;;;5027350;28;20021;-67
2023/01/15 01:44:01;;;;;;;5.63;1.08;;;8.50;90.20;;;;;;5029140;28;20036;-66
2023/01/15 01:46:32;;;;;;;4.15;1.15;;;8.50;90.10;;;;;;5022802;28;20026;-65
2023/01/15 01:49:08;;;;;;;2.70;1.10;;;8.50;90.20;;;;;;5024261;28;20503;-66
2023/01/15 01:51:41;;;;;;;2.58;0.90;;;8.50;90.00;;;;;;5021969;28;20052;-66
2023/01/15 01:54:09;;;;;;;8.13;1.60;;;8.50;90.00;;;;;;5027226;28;20527;-67
2023/01/15 01:56:36;;;;;;;4.82;1.00;;;8.50;90.00;;;;;;5028699;28;20025;-68
2023/01/15 01:59:03;;;;;;;3.92;1.20;;;8.40;90.00;;;;;;5027227;28;20100;-67
2023/01/15 02:01:29;;;;;;;4.32;1.20;;;8.40;90.00;;;;;;5028131;28;20024;-68
2023/01/15 02:03:55;;;;;;;2.85;0.90;;;8.40;89.90;;;;;;5027736;28;20026;-69
2023/01/15 02:06:22;;;;;;;4.55;0.98;;;8.40;89.80;;;;;;5028512;28;20029;-68
2023/01/15 02:08:48;;;;;;;1.15;0.85;;;8.40;89.90;;;;;;5027216;28;20037;-68
2023/01/15 02:11:17;;;;;;;3.75;0.60;;;8.40;89.30;;;;;;5028538;28;20038;-68
2023/01/15 02:13:52;;;;;;;3.22;1.10;;;8.40;89.80;;;;;;5027608;28;20431;-65
2023/01/15 02:16:33;;;;;;;1.35;0.80;;;8.40;89.70;;;;;;5027525;28;20026;-65
2023/01/15 02:19:18;;;;;;;3.10;1.10;;;8.40;89.70;;;;;;5023194;28;20025;-65
2023/01/15 02:22:10;;;;;;;2.97;0.93;;;8.40;89.60;;;;;;5018032;28;20022;-65
2023/01/15 02:25:00;;;;;;;1.98;0.93;;;8.40;89.10;;;;;;5027782;28;20108;-66
2023/01/15 02:27:27;;;;;;;4.13;1.05;;;8.30;89.00;;;;;;5015878;28;20104;-66
2023/01/15 02:30:04;;;;;;;4.05;0.85;;;8.30;89.10;;;;;;5027122;28;20025;-66
2023/01/15 02:32:44;;;;;;;5.65;1.10;;;8.30;89.10;;;;;;5020273;28;20064;-67
2023/01/15 02:35:41;;;;;;;1.85;0.77;;;8.30;89.40;;;;;;5025941;28;20442;-66
2023/01/15 02:38:10;;;;;;;1.30;1.00;;;8.30;89.40;;;;;;5022145;28;20032;-66
2023/01/15 02:40:38;;;;;;;3.45;0.93;;;8.30;89.60;;;;;;5023414;28;20027;-66
2023/01/15 02:43:05;;;;;;;3.78;1.08;;;8.30;89.60;;;;;;5026501;28;20025;-67
2023/01/15 02:45:35;;;;;;;1.90;0.90;;;8.30;89.50;;;;;;5031023;28;20029;-65
2023/01/15 02:48:09;;;;;;;10.55;1.60;;;8.20;89.50;;;;;;5031403;28;20030;-67
2023/01/15 02:50:41;;;;;;;3.95;0.88;;;8.20;89.40;;;;;;5028638;28;20627;-68
2023/01/15 02:53:11;;;;;;;2.72;0.68;;;8.20;89.40;;;;;;5025341;28;20033;-66
2023/01/15 02:55:42;;;;;;;4.47;0.88;;;8.20;89.70;;;;;;5031512;28;20025;-67
2023/01/15 02:58:13;;;;;;;3.43;0.93;;;8.10;89.70;;;;;;5031802;28;20025;-67
2023/01/15 03:00:44;;;;;;;6.80;1.48;;;8.10;89.70;;;;;;5029087;28;20280;-66
2023/01/15 03:03:25;;;;;;;3.47;1.00;;;8.10;89.40;;;;;;5031700;28;20030;-66
2023/01/15 03:06:09;;;;;;;2.50;0.70;;;8.10;89.80;;;;;;5030802;28;20025;-67
2023/01/15 03:08:35;;;;;;;6.10;1.00;;;8.10;90.00;;;;;;5028078;28;20044;-66
2023/01/15 03:11:08;;;;;;;2.17;0.80;;;8.10;89.80;;;;;;5042429;28;20022;-65
2023/01/15 03:13:43;;;;;;;4.78;1.38;;;8.00;89.80;;;;;;5029109;28;20026;-66
2023/01/15 03:16:41;;;;;;;2.78;1.17;;;8.00;89.70;;;;;;5031017;28;20101;-68
2023/01/15 03:19:39;;;;;;;6.97;1.20;;;8.00;89.70;;;;;;5024979;28;20028;-68
2023/01/15 03:22:16;;;;;;;3.33;1.00;;;8.00;89.80;;;;;;5028236;28;20033;-68
2023/01/15 03:25:02;;;;;;;3.47;0.82;;;8.00;90.00;;;;;;5030876;28;20025;-67
2023/01/15 03:27:28;;;;;;;1.48;0.90;;;8.00;90.00;;;;;;5022012;28;20037;-68
2023/01/15 03:30:01;;;;;;;4.28;1.13;;;8.00;90.20;;;;;;5031261;28;20323;-68
2023/01/15 03:32:28;;;;;;;4.72;1.30;;;8.00;89.80;;;;;;5026483;28;20488;-65
2023/01/15 03:34:55;;;;;;;6.20;0.90;;;7.90;89.80;;;;;;5030127;28;20571;-67
2023/01/15 03:37:23;;;;;;;7.38;1.80;;;8.00;90.00;;;;;;5030226;28;20076;-65
2023/01/15 03:39:49;;;;;;;5.38;1.25;;;8.00;90.00;;;;;;5030533;28;20021;-66
2023/01/15 03:42:27;;;;;;;3.45;0.88;;;8.00;90.00;;;;;;5028156;28;20029;-67
2023/01/15 03:45:16;;;;;;;3.95;0.90;;;8.00;90.00;;;;;;5026657;28;20033;-65
2023/01/15 03:47:47;;;;;;;3.72;1.05;;;8.00;90.00;;;;;;5028464;28;20017;-68
2023/01/15 03:50:56;;;;;;;2.17;0.80;;;7.90;89.80;;;;;;5026208;28;20037;-67
2023/01/15 03:53:40;;;;;;;2.45;1.10;;;8.00;89.80;;;;;;5029831;28;20284;-66
2023/01/15 03:56:05;;;;;;;1.27;0.75;;;7.90;89.90;;;;;;5028688;28;20029;-66
2023/01/15 03:58:42;;;;;;;1.85;1.00;;;7.90;90.00;;;;;;5029539;28;20029;-67
2023/01/15 04:01:11;;;;;;;3.33;1.05;;;7.90;89.90;;;;;;5024457;28;20101;-66
2023/01/15 04:03:38;;;;;;;5.35;1.33;;;7.90;89.80;;;;;;5030579;28;20018;-67
2023/01/15 04:06:05;;;;;;;3.03;1.10;;;7.80;89.80;;;;;;5029860;28;20121;-67
2023/01/15 04:08:34;;;;;;;7.13;1.00;;;7.90;89.50;;;;;;5030523;28;20415;-67
2023/01/15 04:11:01;;;;;;;1.48;1.00;;;7.80;89.90;;;;;;5027607;28;20368;-66
2023/01/15 04:13:28;;;;;;;6.57;1.02;;;7.80;89.20;;;;;;5022823;28;20040;-68
2023/01/15 04:15:54;;;;;;;2.70;1.00;;;7.80;89.50;;;;;;5031224;28;20117;-67
2023/01/15 04:18:20;;;;;;;3.58;0.80;;;7.80;89.40;;;;;;5028006;28;20108;-67
2023/01/15 04:20:45;;;;;;;5.00;1.30;;;7.80;89.30;;;;;;5030285;28;20672;-67
2023/01/15 04:23:11;;;;;;;4.30;1.10;;;7.80;89.30;;;;;;5023128;28;20061;-67
2023/01/15 04:25:38;;;;;;;6.57;1.27;;;7.80;89.50;;;;;;5029960;28;20558;-67
2023/01/15 04:28:03;;;;;;;1.90;0.90;;;7.80;89.30;;;;;;5028186;28;20604;-66
2023/01/15 04:30:29;;;;;;;2.60;0.95;;;7.80;89.30;;;;;;5028421;28;20030;-67
2023/01/15 04:32:55;;;;;;;2.83;1.00;;;7.80;89.20;;;;;;5026374;28;20053;-64
2023/01/15 04:35:21;;;;;;;3.10;1.23;;;7.80;89.40;;;;;;5029744;28;20909;-66
2023/01/15 04:37:47;;;;;;;1.52;1.13;;;7.70;89.40;;;;;;5024923;28;20030;-65
2023/01/15 04:44:05;;;;;;;6.43;2.17;;;7.70;89.10;;;;;;5029344;28;20108;-64
2023/01/15 04:45:50;;;;;;;5.47;1.08;;;7.70;88.80;;;;;;5017200;28;20091;-67
2023/01/15 04:48:15;;;;;;;4.50;1.30;;;7.70;88.70;;;;;;5028618;28;20038;-66
2023/01/15 04:50:41;;;;;;;4.13;1.50;;;7.70;88.90;;;;;;5030215;28;20033;-65
2023/01/15 04:53:06;;;;;;;4.32;1.00;;;7.70;88.70;;;;;;5029900;28;20108;-66
2023/01/15 04:55:32;;;;;;;3.03;1.00;;;7.70;88.80;;;;;;5028208;28;20056;-66
2023/01/15 04:57:58;;;;;;;5.03;1.25;;;7.60;88.70;;;;;;5029389;28;20025;-65
2023/01/15 05:00:23;;;;;;;2.92;1.15;;;7.60;88.70;;;;;;5030124;28;20544;-66
2023/01/15 05:02:49;;;;;;;4.15;1.00;;;7.60;88.80;;;;;;5029492;28;20033;-65
2023/01/15 05:05:15;;;;;;;5.05;1.20;;;7.60;88.80;;;;;;5030101;28;20477;-65
2023/01/15 05:07:40;;;;;;;4.43;1.13;;;7.60;88.70;;;;;;5027423;28;20094;-66
2023/01/15 05:10:07;;;;;;;7.70;1.10;;;7.60;89.40;;;;;;5030140;28;20030;-67
2023/01/15 05:12:33;;;;;;;4.63;1.23;;;7.60;88.80;;;;;;5029683;28;20051;-66
2023/01/15 05:14:58;;;;;;;1.83;1.20;;;7.60;88.60;;;;;;5028376;28;20029;-67
2023/01/15 05:17:24;;;;;;;3.92;1.13;;;7.60;88.90;;;;;;5028426;28;20491;-67
2023/01/15 05:19:49;;;;;;;2.38;1.02;;;7.60;88.90;;;;;;5030458;28;20025;-66
2023/01/15 05:22:15;;;;;;;3.22;1.00;;;7.60;88.50;;;;;;5029521;28;20021;-68
2023/01/15 05:24:40;;;;;;;3.75;1.30;;;7.60;88.20;;;;;;5029940;28;20017;-67
2023/01/15 05:27:06;;;;;;;8.80;1.27;;;7.60;88.50;;;;;;5029280;28;20022;-66
2023/01/15 05:29:32;;;;;;;3.65;1.10;;;7.60;88.60;;;;;;5028432;28;20017;-64
2023/01/15 05:31:57;;;;;;;6.05;1.30;;;7.60;88.60;;;;;;5025619;28;20030;-67
2023/01/15 05:34:23;;;;;;;6.57;1.35;;;7.60;88.50;;;;;;5029788;28;20085;-67
2023/01/15 05:36:49;;;;;;;6.50;1.77;;;7.50;88.40;;;;;;5028694;28;20072;-67
2023/01/15 05:39:15;;;;;;;2.33;1.15;;;7.50;88.40;;;;;;5029194;28;20045;-66
2023/01/15 05:41:49;;;;;;;6.70;1.27;;;7.50;88.30;;;;;;5027974;28;20480;-66
2023/01/15 05:44:24;;;;;;;6.97;1.02;;;7.50;88.40;;;;;;5029584;28;20033;-66
2023/01/15 05:46:53;;;;;;;5.55;1.70;;;7.40;88.00;;;;;;5026470;28;20029;-66
2023/01/15 05:49:22;;;;;;;5.20;1.60;;;7.40;88.00;;;;;;5028120;28;20114;-66
2023/01/15 05:51:48;;;;;;;1.92;1.02;;;7.50;88.10;;;;;;5027622;28;20641;-67
2023/01/15 05:54:17;;;;;;;6.30;1.58;;;7.50;88.10;;;;;;5028974;28;20041;-67
2023/01/15 05:56:44;;;;;;;4.45;0.85;;;7.40;88.00;;;;;;5028345;28;20100;-66
2023/01/15 05:59:11;;;;;;;4.78;1.42;;;7.40;88.10;;;;;;5027808;28;20475;-69
2023/01/15 06:01:37;;;;;;;5.05;1.27;;;7.40;88.10;;;;;;5028221;28;20057;-66
2023/01/15 06:04:05;;;;;;;2.70;1.30;;;7.40;88.10;;;;;;5028747;28;20041;-66
2023/01/15 06:06:31;;;;;;;5.53;1.25;;;7.40;88.00;;;;;;5028623;28;20071;-67
2023/01/15 06:08:57;;;;;;;1.80;1.02;;;7.40;87.80;;;;;;5028837;28;20021;-66
2023/01/15 06:11:22;;;;;;;4.90;1.05;;;7.30;87.70;;;;;;5027066;28;20044;-68
2023/01/15 06:13:48;;;;;;;2.83;1.00;;;7.40;87.70;;;;;;5026700;28;20064;-66
2023/01/15 06:16:14;;;;;;;6.50;1.23;;;7.40;87.70;;;;;;5028110;28;20029;-66
2023/01/15 06:18:40;;;;;;;5.32;1.20;;;7.40;87.80;;;;;;5027413;28;20025;-67
2023/01/15 06:21:09;;;;;;;3.20;1.33;;;7.40;87.60;;;;;;5028491;28;20032;-67
2023/01/15 06:23:35;;;;;;;2.95;0.98;;;7.40;87.70;;;;;;5026471;28;20049;-66
2023/01/15 06:26:16;;;;;;;2.30;1.30;;;7.40;87.80;;;;;;5028717;28;20029;-67
2023/01/15 06:28:43;;;;;;;6.20;0.95;;;7.30;87.80;;;;;;5027338;28;20030;-66
2023/01/15 06:31:11;;;;;;;2.85;0.95;;;7.30;87.60;;;;;;5026968;28;20025;-67
2023/01/15 06:33:37;;;;;;;6.07;1.30;;;7.30;87.70;;;;;;5028704;28;20063;-67
2023/01/15 06:36:05;;;;;;;3.53;1.35;;;7.30;87.80;;;;;;5028605;28;20395;-66
2023/01/15 06:38:30;;;;;;;3.05;0.90;;;7.20;87.90;;;;;;5028559;28;20152;-67
2023/01/15 06:40:58;;;;;;;3.53;1.05;;;7.20;87.10;;;;;;5029603;28;20069;-65
2023/01/15 06:48:53;;;;;;;3.55;1.27;;;7.20;87.20;;;;;;5027883;28;20106;-66
2023/01/15 06:51:20;;;;;;;3.55;1.00;;;7.20;87.30;;;;;;5028063;28;20029;-66
2023/01/15 06:53:46;;;;;;;5.15;1.40;;;7.20;87.00;;;;;;5026756;28;20029;-67
2023/01/15 06:56:13;;;;;;;1.42;0.82;;;7.20;87.00;;;;;;5027107;28;20022;-65
2023/01/15 06:58:40;;;;;;;6.32;1.38;;;7.20;86.90;;;;;;5026726;28;20109;-66
2023/01/15 07:01:12;;;;;;;5.80;1.23;;;7.30;87.20;;;;;;5028482;28;20551;-66
2023/01/15 07:03:38;;;;;;;3.35;0.68;;;7.30;87.40;;;;;;5028142;28;20468;-67
2023/01/15 07:06:12;;;;;;;3.28;1.20;;;7.30;87.20;;;;;;5028342;28;20079;-67
2023/01/15 07:08:38;;;;;;;4.90;1.50;;;7.30;87.50;;;;;;5028181;28;20029;-66
2023/01/15 07:11:06;;;;;;;2.78;1.05;;;7.30;87.50;;;;;;5027007;28;20492;-67
2023/01/15 07:13:32;;;;;;;2.45;0.90;;;7.20;87.40;;;;;;5026663;28;20030;-66
2023/01/15 07:16:02;;;;;;;4.55;1.10;;;7.20;87.60;;;;;;5026157;28;20033;-67
2023/01/15 07:18:30;;;;;;;2.45;1.05;;;7.20;87.70;;;;;;5025963;28;20622;-65
2023/01/15 07:20:56;;;;;;;6.72;1.33;;;7.10;87.90;;;;;;5026070;28;20021;-65
2023/01/15 07:23:23;;;;;;;5.18;1.63;;;7.10;88.30;;;;;;5026230;28;20030;-67
2023/01/15 07:25:51;;;;;;;3.78;1.20;;;7.00;87.60;;;;;;5027385;28;20079;-67
2023/01/15 07:28:16;;;;;;;2.33;0.88;;;7.10;87.80;;;;;;5024387;28;20017;-66
2023/01/15 07:30:42;;;;;;;7.80;1.38;;;7.00;87.80;;;;;;5025517;28;20025;-65
2023/01/15 07:33:07;;;;;;;2.85;1.10;;;7.00;88.00;;;;;;5028244;28;20036;-67
2023/01/15 07:35:35;;;;;;;3.22;0.90;;;7.00;88.10;;;;;;5030926;28;20033;-67
2023/01/15 07:38:01;;;;;;;7.35;1.20;;;6.90;88.10;;;;;;5026460;28;20369;-66
2023/01/15 07:40:27;;;;;;;3.38;1.00;;;6.90;88.30;;;;;;5032048;28;20066;-66
2023/01/15 07:51:08;;;;;;;3.35;1.02;;;6.80;88.40;;;;;;5028724;28;20041;-64
2023/01/15 07:53:33;;;;;;;3.17;1.25;;;6.80;88.20;;;;;;5030211;28;20395;-66
2023/01/15 07:55:59;;;;;;;7.65;1.27;;;6.80;88.20;;;;;;5028407;28;20458;-66
2023/01/15 07:58:24;;;;;;;3.28;0.98;;;6.80;87.70;;;;;;5030891;28;20450;-67
2023/01/15 08:00:50;;;;;;;4.80;1.20;;;6.70;87.80;;;;;;5030915;28;20033;-67
2023/01/15 08:03:15;;;;;;;4.68;0.90;;;6.70;87.80;;;;;;5026037;28;20026;-67
2023/01/15 08:05:41;;;;;;;2.00;0.93;;;6.80;87.90;;;;;;5031575;28;20037;-65
2023/01/15 08:08:17;;;;;;;3.42;0.90;;;6.70;87.80;;;;;;5029100;28;20033;-66
2023/01/15 08:16:11;;;;;;;4.80;1.45;;;6.70;87.40;;;;;;5030851;28;20055;-67
2023/01/15 08:18:37;;;;;;;4.30;1.33;;;6.80;87.50;;;;;;5028606;28;20030;-67
2023/01/15 08:21:03;;;;;;;4.22;1.17;;;6.70;87.20;;;;;;5030052;28;20017;-65
2023/01/15 08:23:29;;;;;;;3.83;1.08;;;6.70;86.70;;;;;;5030133;28;20091;-67
2023/01/15 08:25:58;;;;;;;3.70;1.02;;;6.70;87.00;;;;;;5030829;28;20052;-67
2023/01/15 08:28:24;;;;;;;3.45;1.15;;;6.70;86.90;;;;;;5031029;28;20060;-65
2023/01/15 08:30:50;;;;;;;7.03;1.58;;;6.70;86.30;;;;;;5028238;28;20500;-67
2023/01/15 08:33:15;;;;;;;0.80;0.80;;;6.70;86.10;;;;;;5030265;28;20109;-67
2023/01/15 08:35:41;;;;;;;5.38;1.27;;;6.70;86.10;;;;;;5028828;28;20056;-66
2023/01/15 08:38:07;;;;;;;11.57;1.40;;;6.70;86.00;;;;;;5029444;28;20499;-65
2023/01/15 08:40:35;;;;;;;7.60;1.30;;;6.80;85.50;;;;;;5031274;28;20025;-66
2023/01/15 08:43:01;;;;;;;8.77;1.55;;;6.80;85.60;;;;;;5028854;28;20416;-67
2023/01/15 08:45:26;;;;;;;2.47;0.90;;;6.80;85.60;;;;;;5030020;28;20368;-68
2023/01/15 08:47:56;;;;;;;6.80;1.45;;;6.90;85.50;;;;;;5029263;28;20030;-66
2023/01/15 08:50:22;;;;;;;5.07;1.52;;;6.90;84.50;;;;;;5029689;28;20029;-67
2023/01/15 08:52:47;;;;;;;2.35;1.00;;;6.90;84.50;;;;;;5030091;28;20040;-67
2023/01/15 08:55:13;;;;;;;4.68;1.20;;;7.00;84.70;;;;;;5026072;28;20030;-67
2023/01/15 08:57:39;;;;;;;8.00;1.10;;;7.00;84.30;;;;;;5026665;28;20034;-68
2023/01/15 09:00:05;;;;;;;5.30;1.20;;;7.00;83.90;;;;;;5027983;28;20387;-67
2023/01/15 09:02:31;;;;;;;4.47;1.10;;;7.00;83.80;;;;;;5027885;28;20179;-68
2023/01/15 09:04:57;;;;;;;3.70;1.00;;;7.00;83.60;;;;;;5030140;28;20096;-68
2023/01/15 09:07:23;;;;;;;3.92;1.30;;;7.00;83.60;;;;;;5029723;28;20013;-67
2023/01/15 09:09:48;;;;;;;2.53;1.23;;;7.00;83.00;;;;;;5027629;28;20029;-69
2023/01/15 09:12:14;;;;;;;4.32;1.13;;;7.00;82.60;;;;;;5028115;28;20021;-69
2023/01/15 09:14:39;;;;;;;4.63;1.42;;;7.10;82.80;;;;;;5028151;28;20033;-69
2023/01/15 09:17:05;;;;;;;6.32;0.90;;;7.10;83.00;;;;;;5027391;28;20503;-68
2023/01/15 09:19:31;;;;;;;5.97;1.02;;;7.10;82.30;;;;;;5029253;28;20021;-69
2023/01/15 09:21:56;;;;;;;3.88;1.15;;;7.10;82.40;;;;;;5029418;28;20082;-68
2023/01/15 09:24:22;;;;;;;2.47;0.80;;;7.10;81.80;;;;;;5031114;28;20028;-69
2023/01/15 09:26:47;;;;;;;1.45;0.93;;;7.10;81.90;;;;;;5026520;28;20044;-68
2023/01/15 09:29:13;;;;;;;3.15;1.00;;;7.20;82.20;;;;;;5026308;28;20033;-67
2023/01/15 09:31:39;;;;;;;6.18;0.90;;;7.20;82.30;;;;;;5031230;28;20036;-68
2023/01/15 09:34:04;;;;;;;7.90;1.27;;;7.20;82.10;;;;;;5028792;28;20087;-68
2023/01/15 09:36:33;;;;;;;3.00;1.27;;;7.20;81.30;;;;;;5026904;28;20484;-69
2023/01/15 09:39:00;;;;;;;3.50;1.30;;;7.30;81.60;;;;;;5026004;28;20087;-68
2023/01/15 09:44:49;;;;;;;4.72;1.15;;;7.30;80.80;;;;;;5028085;28;20791;-67
2023/01/15 09:47:18;;;;;;;8.48;1.10;;;7.40;81.40;;;;;;5019757;28;20125;-66
2023/01/15 09:49:55;;;;;;;6.32;1.23;;;7.40;81.40;;;;;;5026308;28;20543;-67
2023/01/15 09:52:23;;;;;;;4.47;1.10;;;7.40;80.10;;;;;;5019392;28;20041;-65
2023/01/15 09:55:00;;;;;;;4.80;1.20;;;7.40;80.60;;;;;;5024258;28;20068;-67
2023/01/15 09:57:27;;;;;;;3.30;1.00;;;7.40;80.80;;;;;;5024977;28;20029;-65
2023/01/15 09:59:59;;;;;;;2.92;1.17;;;7.40;80.80;;;;;;5027759;28;20013;-66
2023/01/15 10:02:38;;;;;;;5.30;1.10;;;7.40;80.30;;;;;;5022614;28;20046;-67
2023/01/15 10:05:18;;;;;;;6.13;1.30;;;7.50;80.30;;;;;;5019982;28;20038;-67
2023/01/15 10:08:13;;;;;;;4.70;1.27;;;7.50;80.20;;;;;;5027353;28;20025;-67
2023/01/15 10:10:47;;;;;;;5.13;1.35;;;7.60;80.00;;;;;;5024866;28;20037;-65
2023/01/15 10:13:26;;;;;;;5.13;1.02;;;7.50;79.90;;;;;;5022607;28;20052;-67
2023/01/15 10:15:52;;;;;;;3.30;1.10;;;7.60;80.50;;;;;;5025372;28;20041;-67
2023/01/15 10:18:22;;;;;;;5.45;1.33;;;7.70;80.50;;;;;;5027860;28;20017;-66
2023/01/15 10:21:16;;;;;;;2.58;0.90;;;7.70;80.60;;;;;;5024939;28;20033;-67
2023/01/15 10:24:02;;;;;;;7.18;1.40;;;7.70;80.20;;;;;;5026535;28;20029;-66
2023/01/15 10:26:31;;;;;;;4.45;1.30;;;7.70;79.80;;;;;;5024848;28;20480;-66
2023/01/15 10:28:58;;;;;;;6.13;1.63;;;7.70;79.80;;;;;;5025141;28;20032;-67
2023/01/15 10:31:48;;;;;;;2.13;0.90;;;7.80;79.70;;;;;;5026576;28;20064;-65
2023/01/15 10:34:42;;;;;;;4.47;1.10;;;7.80;79.30;;;;;;5004104;28;20737;-66
2023/01/15 10:37:34;;;;;;;6.03;1.25;;;7.80;79.30;;;;;;5020816;28;20406;-67
2023/01/15 10:40:39;;;;;;;2.72;0.90;;;7.90;79.50;;;;;;5022632;28;20091;-67
2023/01/15 10:43:12;;;;;;;4.38;1.17;;;8.00;79.40;;;;;;5025225;28;20057;-67
2023/01/15 10:45:49;;;;;;;3.92;1.33;;;8.00;79.10;;;;;;5020625;28;20025;-67
2023/01/15 10:48:35;;;;;;;5.00;1.17;;;8.10;79.30;;;;;;5028982;28;20064;-67
2023/01/15 10:51:12;;;;;;;4.82;1.13;;;8.10;78.70;;;;;;5024279;28;20811;-67
2023/01/15 10:53:49;;;;;;;4.57;1.20;;;8.10;78.70;;;;;;5026423;28;20025;-67
2023/01/15 10:56:47;;;;;;;7.53;1.20;;;8.20;78.20;;;;;;5023396;28;20017;-68
2023/01/15 10:59:21;;;;;;;1.88;1.00;;;8.20;78.60;;;;;;5025021;28;20476;-68
2023/01/15 11:01:54;;;;;;;4.93;1.10;;;8.30;78.10;;;;;;5026623;28;20460;-69
2023/01/15 11:04:20;;;;;;;7.03;1.20;;;8.30;78.60;;;;;;5028982;28;20104;-69
2023/01/15 11:06:48;;;;;;;7.28;1.30;;;8.30;77.80;;;;;;5027449;28;20540;-72
2023/01/15 11:09:35;;;;;;;4.15;1.90;;;8.30;77.80;;;;;;5027104;28;20033;-69
2023/01/15 11:20:29;;;;;;;3.67;1.15;;;8.40;76.20;;;;;;5030321;28;20040;-69
2023/01/15 11:22:56;;;;;;;3.88;1.15;;;8.50;76.40;;;;;;5032474;28;20029;-72
2023/01/15 11:25:30;;;;;;;3.72;0.90;;;8.60;76.80;;;;;;5029289;28;20710;-67
2023/01/15 11:27:59;;;;;;;3.10;1.15;;;8.60;75.90;;;;;;5028469;28;20025;-72
2023/01/15 11:30:30;;;;;;;1.67;0.90;;;8.60;75.80;;;;;;5030336;28;20030;-69
2023/01/15 11:32:59;;;;;;;5.15;1.20;;;8.50;75.90;;;;;;5032116;28;20045;-70
2023/01/15 11:35:25;;;;;;;5.78;1.63;;;8.60;75.70;;;;;;5028340;28;20057;-68
2023/01/15 11:38:11;;;;;;;3.60;1.38;;;8.60;75.80;;;;;;5029877;28;20049;-65
2023/01/15 11:40:37;;;;;;;5.22;1.10;;;8.60;76.50;;;;;;5041870;28;20017;-68
2023/01/15 11:51:40;;;;;;;6.28;1.08;;;8.60;77.10;;;;;;5031406;28;20102;-68
2023/01/15 11:54:08;;;;;;;3.97;1.35;;;8.50;77.40;;;;;;5031160;28;20025;-67
2023/01/15 11:56:35;;;;;;;4.25;1.33;;;8.50;77.60;;;;;;5031532;28;20563;-67
2023/01/15 11:59:08;;;;;;;6.22;1.15;;;8.50;78.10;;;;;;5031842;28;20021;-69
2023/01/15 12:01:45;;;;;;;9.52;1.27;;;8.40;78.10;;;;;;5030897;28;20546;-71
2023/01/15 12:04:41;;;;;;;3.60;1.30;;;8.40;78.60;;;;;;5029612;28;20103;-70
2023/01/15 12:07:12;;;;;;;5.65;1.58;;;8.20;79.50;;;;;;5030929;28;20025;-71
2023/01/15 12:09:58;;;;;;;10.13;1.73;;;8.10;80.60;;;;;;5031327;28;20040;-69
2023/01/15 12:12:50;;;;;;;3.60;0.93;;;8.10;81.60;;;;;;5031324;28;20095;-67
2023/01/15 12:15:32;;;;;;;5.45;1.40;;;8.00;82.80;;;;;;5027960;28;20038;-67
2023/01/15 12:18:35;;;;;;;7.60;1.63;;;8.00;82.40;;;;;;5022692;28;20120;-68
2023/01/15 12:21:22;;;;;;;3.13;1.20;;;8.00;82.80;;;;;;5028985;28;20104;-67
2023/01/15 12:23:58;;;;;;;4.45;1.23;;;8.00;83.10;;;;;;5028874;28;20053;-67
2023/01/15 12:26:30;;;;;;;4.78;1.17;;;8.00;83.40;;;;;;5030114;28;20030;-68
2023/01/15 12:29:16;;;;;;;2.13;1.10;;;8.10;83.30;;;;;;5029528;28;20523;-68
2023/01/15 12:31:50;;;;;;;3.78;1.08;;;8.20;83.20;;;;;;5026422;28;20509;-67
2023/01/15 12:34:33;;;;;;;5.53;1.70;;;8.30;82.50;;;;;;5027584;28;20029;-68
2023/01/15 12:37:09;;;;;;;1.60;1.30;;;8.30;82.40;;;;;;5028076;28;20022;-67
2023/01/15 12:39:45;;;;;;;2.92;1.48;;;8.30;81.80;;;;;;5025837;28;20699;-67
2023/01/15 12:45:09;;;;;;;1.92;1.10;;;8.20;82.10;;;;;;5026449;28;20532;-67
2023/01/15 12:47:49;;;;;;;7.30;1.25;;;8.10;82.60;;;;;;5028404;28;20399;-67
2023/01/15 12:50:43;;;;;;;4.22;1.40;;;8.00;83.00;;;;;;5027690;28;20029;-67
2023/01/15 12:53:46;;;;;;;2.65;1.25;;;7.90;83.20;;;;;;5027579;28;20026;-68
2023/01/15 12:56:26;;;;;;;2.25;1.23;;;7.90;83.70;;;;;;5028622;28;20025;-68
2023/01/15 12:59:06;;;;;;;3.25;1.42;;;7.90;83.80;;;;;;5029458;28;20026;-68
2023/01/15 13:02:08;;;;;;;4.00;1.25;;;7.80;84.10;;;;;;5029601;28;20028;-68
2023/01/15 13:04:50;;;;;;;1.90;1.20;;;7.80;84.60;;;;;;5029006;28;20034;-69
2023/01/15 13:07:36;;;;;;;2.47;1.33;;;7.70;85.10;;;;;;5029360;28;20033;-68
2023/01/15 13:10:06;;;;;;;4.45;1.30;;;7.70;85.50;;;;;;5028922;28;20033;-67
2023/01/15 13:12:32;;;;;;;4.25;1.20;;;7.70;85.90;;;;;;5025552;28;20044;-69
2023/01/15 13:14:58;;;;;;;2.63;1.00;;;7.70;85.90;;;;;;5026035;28;21124;-67
2023/01/15 13:17:29;;;;;;;4.38;1.20;;;7.70;85.80;;;;;;5028065;28;20022;-67
2023/01/15 13:20:32;;;;;;;3.92;1.58;;;7.80;85.80;;;;;;5027021;28;20452;-67
2023/01/15 13:23:07;;;;;;;;;;;7.80;85.60;;;;;;5028254;28;20033;-67
2023/01/15 13:26:06;;;;;;;3.17;1.35;;;7.80;85.50;;;;;;5023885;28;19905;-70
2023/01/15 13:28:57;;;;;;;5.07;1.85;;;7.80;85.50;;;;;;5028671;28;20034;-68
2023/01/15 13:31:52;;;;;;;4.82;1.50;;;7.90;85.30;;;;;;5028847;28;20407;-68
2023/01/15 13:34:35;;;;;;;9.60;1.50;;;7.90;85.10;;;;;;5027420;28;20026;-69
2023/01/15 13:37:47;;;;;;;3.72;1.30;;;7.90;85.10;;;;;;5027823;28;20365;-67
2023/01/15 13:40:22;;;;;;;2.13;1.17;;;7.90;85.70;;;;;;5026307;28;20029;-66
2023/01/15 13:42:49;;;;;;;2.50;1.60;;;7.90;85.40;;;;;;5028565;28;20476;-68
2023/01/15 13:45:15;;;;;;;3.70;1.13;;;7.90;85.70;;;;;;5028817;28;20032;-68
2023/01/15 13:47:49;;;;;;;5.20;1.48;;;7.90;85.70;;;;;;5029662;28;20524;-68
2023/01/15 13:50:24;;;;;;;1.88;1.20;;;7.90;85.70;;;;;;5029688;28;20049;-68
2023/01/15 13:53:19;;;;;;;6.07;1.50;;;7.90;85.70;;;;;;5028611;28;20026;-70
2023/01/15 13:56:14;;;;;;;6.25;1.42;;;7.90;85.70;;;;;;5023040;28;20526;-69
2023/01/15 13:58:54;;;;;;;5.78;1.77;;;7.80;85.90;;;;;;5026103;28;20081;-66
2023/01/15 14:01:24;;;;;;;4.70;1.27;;;7.80;86.30;;;;;;5027070;28;20538;-67
2023/01/15 14:04:11;;;;;;;2.53;1.38;;;7.80;86.40;;;;;;5024540;28;20060;-69
2023/01/15 14:06:44;;;;;;;2.70;1.55;;;7.80;86.30;;;;;;5028435;28;20361;-67
2023/01/15 14:09:21;;;;;;;4.07;1.10;;;7.70;86.30;;;;;;5023094;28;20377;-68